createdAt,value
2022-09-11T00:01:31.060Z,100231.00
2022-09-11T00:03:57.737Z,100226.03
2022-09-11T00:06:29.795Z,100231.56
2022-09-11T00:09:00.713Z,100235.78
2022-09-11T00:11:35.079Z,100236.41
2022-09-11T00:14:01.896Z,100241.72
2022-09-11T00:16:34.691Z,100238.34
2022-09-11T00:19:04.942Z,100228.06
2022-09-11T00:21:31.797Z,100221.28
2022-09-11T00:23:58.394Z,100220.66
2022-09-11T00:26:25.199Z,100220.75
2022-09-11T00:28:52.455Z,100215.69
2022-09-11T00:31:20.464Z,100224.56
2022-09-11T00:33:47.054Z,100216.03
2022-09-11T00:36:15.822Z,100213.91
2022-09-11T00:38:42.853Z,100219.22
2022-09-11T00:41:24.252Z,100214.84
2022-09-11T00:44:07.725Z,100217.28
2022-09-11T00:46:42.111Z,100220.59
2022-09-11T00:49:17.813Z,100217.94
2022-09-11T00:51:45.883Z,100218.91
2022-09-11T00:54:12.771Z,100215.50
2022-09-11T00:56:39.338Z,100218.25
2022-09-11T00:59:05.921Z,100223.81
2022-09-11T01:01:33.239Z,100218.50
2022-09-11T01:04:03.393Z,100220.19
2022-09-11T01:06:29.998Z,100228.56
2022-09-11T01:08:56.575Z,100231.75
2022-09-11T01:11:39.444Z,100233.66
2022-09-11T01:14:21.183Z,100224.66
2022-09-11T01:17:05.237Z,100221.28
2022-09-11T01:19:40.863Z,100223.19
2022-09-11T01:22:19.880Z,100224.03
2022-09-11T01:24:49.408Z,100218.81
2022-09-11T01:27:28.367Z,100214.25
2022-09-11T01:29:59.024Z,100206.31
2022-09-11T01:33:03.427Z,100205.47
2022-09-11T01:35:47.222Z,100200.56
2022-09-11T01:38:25.958Z,100198.00
2022-09-11T01:40:57.571Z,100199.06
2022-09-11T01:43:30.627Z,100196.75
2022-09-11T01:45:58.572Z,100189.22
2022-09-11T01:48:27.271Z,100189.22
2022-09-11T01:50:54.314Z,100190.91
2022-09-11T01:53:22.231Z,100193.56
2022-09-11T01:56:02.470Z,100195.38
2022-09-11T01:58:30.235Z,100198.12
2022-09-11T02:01:05.757Z,100186.03
2022-09-11T02:03:37.115Z,100192.72
2022-09-11T02:06:05.929Z,100194.41
2022-09-11T02:08:47.172Z,100193.78
2022-09-11T02:11:14.250Z,100188.50
2022-09-11T02:13:48.764Z,100190.28
2022-09-11T02:16:33.247Z,100186.13
2022-09-11T02:19:07.179Z,100180.53
2022-09-11T02:21:33.798Z,100179.91
2022-09-11T02:24:00.855Z,100186.25
2022-09-11T02:26:30.221Z,100185.63
2022-09-11T02:28:56.771Z,100180.31
2022-09-11T02:31:23.393Z,100178.72
2022-09-11T02:33:50.200Z,100178.72
2022-09-11T02:36:32.042Z,100179.44
2022-09-11T02:39:07.961Z,100180.38
2022-09-11T02:41:42.872Z,100181.12
2022-09-11T02:44:14.447Z,100174.47
2022-09-11T02:46:56.089Z,100181.03
2022-09-11T02:49:54.914Z,100177.41
2022-09-11T02:52:41.590Z,100176.34
2022-09-11T02:55:17.016Z,100184.69
2022-09-11T02:58:00.981Z,100181.56
2022-09-11T03:00:27.555Z,100186.13
2022-09-11T03:02:54.108Z,100185.78
2022-09-11T03:05:21.008Z,100183.69
2022-09-11T03:07:47.580Z,100192.56
2022-09-11T03:10:14.149Z,100192.47
2022-09-11T03:12:41.757Z,100191.72
2022-09-11T03:15:10.445Z,100192.87
2022-09-11T03:17:37.039Z,100204.31
2022-09-11T03:20:04.526Z,100196.94
2022-09-11T03:22:33.419Z,100193.41
2022-09-11T03:25:00.020Z,100189.75
2022-09-11T03:27:27.635Z,100191.50
2022-09-11T03:29:54.215Z,100189.53
2022-09-11T03:32:22.853Z,100191.09
2022-09-11T03:34:49.512Z,100193.13
2022-09-11T03:37:16.061Z,100188.59
2022-09-11T03:39:43.555Z,100182.72
2022-09-11T03:42:13.314Z,100180.41
2022-09-11T03:44:41.075Z,100184.72
2022-09-11T03:47:07.720Z,100180.75
2022-09-11T03:49:34.339Z,100189.25
2022-09-11T03:52:01.624Z,100180.59
2022-09-11T03:54:28.653Z,100186.41
2022-09-11T03:56:55.252Z,100185.34
2022-09-11T03:59:21.836Z,100186.44
2022-09-11T04:01:50.810Z,100195.44
2022-09-11T04:04:17.655Z,100188.56
2022-09-11T04:06:44.178Z,100193.22
2022-09-11T04:09:10.845Z,100192.38
2022-09-11T04:11:40.388Z,100198.97
2022-09-11T04:14:07.758Z,100200.00
2022-09-11T04:16:34.349Z,100198.75
2022-09-11T04:19:01.853Z,100193.91
2022-09-11T04:21:28.656Z,100192.81
2022-09-11T04:23:56.446Z,100195.47
2022-09-11T04:26:24.209Z,100205.34
2022-09-11T04:28:50.954Z,100200.69
2022-09-11T04:31:17.937Z,100203.31
2022-09-11T04:33:44.858Z,100204.16
2022-09-11T04:36:13.192Z,100197.47
2022-09-11T04:38:41.468Z,100194.22
2022-09-11T04:41:08.266Z,100198.12
2022-09-11T04:43:38.916Z,100201.59
2022-09-11T04:46:07.235Z,100188.16
2022-09-11T04:48:33.874Z,100197.19
2022-09-11T04:51:07.916Z,100190.06
2022-09-11T04:53:35.770Z,100185.09
2022-09-11T04:56:07.425Z,100181.25
2022-09-11T04:58:34.467Z,100181.59
2022-09-11T05:01:01.075Z,100180.44
2022-09-11T05:03:27.709Z,100177.44
2022-09-11T05:05:54.315Z,100185.09
2022-09-11T05:08:23.495Z,100185.72
2022-09-11T05:10:50.064Z,100191.25
2022-09-11T05:13:17.195Z,100187.13
2022-09-11T05:15:43.804Z,100194.62
2022-09-11T05:18:11.527Z,100194.41
2022-09-11T05:20:39.912Z,100195.47
2022-09-11T05:23:07.206Z,100194.31
2022-09-11T05:25:33.803Z,100197.16
2022-09-11T05:28:00.372Z,100196.63
2022-09-11T05:30:27.171Z,100202.13
2022-09-11T05:32:55.146Z,100209.00
2022-09-11T05:35:24.360Z,100207.63
2022-09-11T05:37:50.920Z,100213.31
2022-09-11T05:40:17.571Z,100215.53
2022-09-11T05:42:44.684Z,100215.44
2022-09-11T05:45:11.301Z,100215.88
2022-09-11T05:47:37.845Z,100220.00
2022-09-11T05:50:04.571Z,100218.97
2022-09-11T05:52:31.011Z,100219.66
2022-09-11T05:54:58.204Z,100221.19
2022-09-11T05:57:24.735Z,100224.97
2022-09-11T05:59:52.267Z,100227.72
2022-09-11T06:02:18.896Z,100215.97
2022-09-11T06:04:45.372Z,100217.78
2022-09-11T06:07:11.936Z,100209.59
2022-09-11T06:09:38.531Z,100211.97
2022-09-11T06:12:04.918Z,100216.09
2022-09-11T06:14:32.125Z,100211.06
2022-09-11T06:16:58.717Z,100207.03
2022-09-11T06:19:25.135Z,100213.37
2022-09-11T06:21:51.676Z,100208.62
2022-09-11T06:24:18.686Z,100207.59
2022-09-11T06:26:46.635Z,100216.31
2022-09-11T06:29:14.915Z,100210.53
2022-09-11T06:31:41.519Z,100213.06
2022-09-11T06:34:08.214Z,100219.31
2022-09-11T06:36:34.803Z,100215.41
2022-09-11T06:39:02.298Z,100213.00
2022-09-11T06:41:28.927Z,100212.00
2022-09-11T06:43:55.498Z,100209.63
2022-09-11T06:46:23.137Z,100211.44
2022-09-11T06:48:50.237Z,100193.13
2022-09-11T06:51:18.689Z,100197.84
2022-09-11T06:53:45.376Z,100201.69
2022-09-11T06:56:13.029Z,100198.12
2022-09-11T06:58:40.191Z,100196.69
2022-09-11T07:01:08.699Z,100208.97
2022-09-11T07:03:35.408Z,100202.34
2022-09-11T07:06:01.966Z,100205.91
2022-09-11T07:08:28.527Z,100210.44
2022-09-11T07:10:55.153Z,100202.66
2022-09-11T07:13:24.407Z,100202.59
2022-09-11T07:16:00.059Z,100204.56
2022-09-11T07:18:26.656Z,100218.53
2022-09-11T07:20:53.231Z,100212.63
2022-09-11T07:23:20.064Z,100201.66
2022-09-11T07:25:46.635Z,100199.31
2022-09-11T07:28:13.256Z,100195.09
2022-09-11T07:30:41.023Z,100196.63
2022-09-11T07:33:07.619Z,100199.56
2022-09-11T07:35:37.088Z,100200.06
2022-09-11T07:38:03.628Z,100191.66
2022-09-11T07:40:31.353Z,100189.78
2022-09-11T07:42:58.006Z,100192.94
2022-09-11T07:45:24.581Z,100199.28
2022-09-11T07:47:51.164Z,100190.06
2022-09-11T07:50:18.126Z,100193.84
2022-09-11T07:52:44.719Z,100202.06
2022-09-11T07:55:11.284Z,100193.94
2022-09-11T07:57:37.884Z,100201.72
2022-09-11T08:00:04.964Z,100191.09
2022-09-11T08:02:31.604Z,100190.78
2022-09-11T08:04:58.319Z,100187.25
2022-09-11T08:07:25.550Z,100192.13
2022-09-11T08:10:10.204Z,100191.78
2022-09-11T08:12:38.689Z,100190.38
2022-09-11T08:15:05.530Z,100194.38
2022-09-11T08:17:32.665Z,100195.97
2022-09-11T08:19:59.222Z,100199.06
2022-09-11T08:22:25.796Z,100202.06
2022-09-11T08:24:52.350Z,100194.69
2022-09-11T08:27:18.953Z,100191.59
2022-09-11T08:29:45.978Z,100202.66
2022-09-11T08:32:13.302Z,100206.16
2022-09-11T08:34:39.868Z,100201.12
2022-09-11T08:37:06.466Z,100192.38
2022-09-11T08:39:33.022Z,100186.59
2022-09-11T08:42:03.859Z,100180.22
2022-09-11T08:44:38.531Z,100190.22
2022-09-11T08:47:07.967Z,100185.66
2022-09-11T08:49:37.207Z,100193.09
2022-09-11T08:52:04.401Z,100186.13
2022-09-11T08:54:33.458Z,100193.56
2022-09-11T08:57:28.089Z,100183.31
2022-09-11T09:00:20.566Z,100179.44
2022-09-11T09:02:56.995Z,100183.50
2022-09-11T09:05:54.392Z,100189.31
2022-09-11T09:08:24.344Z,100194.22
2022-09-11T09:10:53.200Z,100198.94
2022-09-11T09:13:25.799Z,100199.38
2022-09-11T09:15:58.910Z,100208.47
2022-09-11T09:18:32.998Z,100216.66
2022-09-11T09:21:09.441Z,100213.31
2022-09-11T09:23:41.942Z,100213.31
2022-09-11T09:26:17.616Z,100216.50
2022-09-11T09:28:46.791Z,100207.75
2022-09-11T09:31:19.775Z,100208.56
2022-09-11T09:34:04.328Z,100220.44
2022-09-11T09:36:52.356Z,100209.06
2022-09-11T09:39:19.008Z,100211.66
2022-09-11T09:42:08.814Z,100215.56
2022-09-11T09:45:14.800Z,100208.84
2022-09-11T09:47:44.748Z,100217.03
2022-09-11T09:50:22.833Z,100211.22
2022-09-11T09:52:49.529Z,100213.72
2022-09-11T09:55:18.142Z,100209.50
2022-09-11T09:57:46.177Z,100194.38
2022-09-11T10:00:17.555Z,100197.41
2022-09-11T10:02:55.209Z,100185.97
2022-09-11T10:05:35.157Z,100184.09
2022-09-11T10:08:03.003Z,100179.94
2022-09-11T10:10:37.054Z,100183.25
2022-09-11T10:13:19.014Z,100175.97
2022-09-11T10:15:48.300Z,100167.31
2022-09-11T10:18:33.856Z,100177.78
2022-09-11T10:21:12.699Z,100169.37
2022-09-11T10:23:48.044Z,100163.09
2022-09-11T10:26:24.792Z,100166.16
2022-09-11T10:28:53.100Z,100159.22
2022-09-11T10:31:20.692Z,100161.50
2022-09-11T10:33:56.414Z,100154.09
2022-09-11T10:36:27.316Z,100152.69
2022-09-11T10:38:53.923Z,100149.53
2022-09-11T10:41:21.644Z,100152.16
2022-09-11T10:43:55.940Z,100167.94
2022-09-11T10:46:40.453Z,100165.25
2022-09-11T10:49:21.841Z,100165.53
2022-09-11T10:52:19.334Z,100168.47
2022-09-11T10:55:10.526Z,100174.69
2022-09-11T10:57:45.388Z,100183.00
2022-09-11T11:00:27.345Z,100175.19
2022-09-11T11:03:05.343Z,100180.72
2022-09-11T11:05:49.998Z,100182.69
2022-09-11T11:08:25.665Z,100179.94
2022-09-11T11:10:52.127Z,100174.19
2022-09-11T11:13:21.510Z,100168.53
2022-09-11T11:16:27.352Z,100156.75
2022-09-11T11:19:03.554Z,100160.38
2022-09-11T11:21:30.029Z,100162.50
2022-09-11T11:24:02.384Z,100158.25
2022-09-11T11:26:42.449Z,100153.91
2022-09-11T11:29:22.448Z,100150.25
2022-09-11T11:31:55.676Z,100151.19
2022-09-11T11:34:51.160Z,100144.97
2022-09-11T11:37:21.430Z,100139.91
2022-09-11T11:40:24.677Z,100135.09
2022-09-11T11:43:04.424Z,100144.12
2022-09-11T11:45:52.626Z,100141.94
2022-09-11T11:48:23.731Z,100146.56
2022-09-11T11:50:52.779Z,100146.66
2022-09-11T11:53:28.826Z,100145.66
2022-09-11T11:56:22.907Z,100147.00
2022-09-11T11:59:16.909Z,100144.41
2022-09-11T12:02:02.383Z,100135.50
2022-09-11T12:05:08.217Z,100136.00
2022-09-11T12:07:37.304Z,100135.75
2022-09-11T12:10:05.811Z,100143.06
2022-09-11T12:12:43.071Z,100145.25
2022-09-11T12:15:17.829Z,100147.31
2022-09-11T12:17:45.217Z,100138.44
2022-09-11T12:20:11.845Z,100139.91
2022-09-11T12:22:48.789Z,100133.31
2022-09-11T12:25:21.447Z,100137.84
2022-09-11T12:27:50.888Z,100135.59
2022-09-11T12:30:17.488Z,100148.38
2022-09-11T12:33:01.098Z,100145.66
2022-09-11T12:35:42.892Z,100155.59
2022-09-11T12:38:09.312Z,100157.72
2022-09-11T12:40:48.248Z,100156.44
2022-09-11T12:43:45.783Z,100147.06
2022-09-11T12:46:22.568Z,100144.34
2022-09-11T12:49:21.466Z,100140.88
2022-09-11T12:51:54.045Z,100144.22
2022-09-11T12:54:39.583Z,100147.31
2022-09-11T12:57:31.655Z,100139.81
2022-09-11T13:00:11.843Z,100141.97
2022-09-11T13:02:42.114Z,100137.78
2022-09-11T13:05:26.314Z,100136.06
2022-09-11T13:07:55.174Z,100128.31
2022-09-11T13:10:37.134Z,100133.50
2022-09-11T13:13:05.580Z,100136.59
2022-09-11T13:15:39.195Z,100136.72
2022-09-11T13:18:29.804Z,100129.28
2022-09-11T13:20:58.895Z,100124.22
2022-09-11T13:23:26.471Z,100107.19
2022-09-11T13:25:55.603Z,100109.84
2022-09-11T13:28:26.692Z,100104.84
2022-09-11T13:31:02.191Z,100110.88
2022-09-11T13:33:29.884Z,100107.22
2022-09-11T13:36:02.633Z,100100.44
2022-09-11T13:38:34.283Z,100103.31
2022-09-11T13:41:15.018Z,100087.75
2022-09-11T13:43:44.437Z,100090.78
2022-09-11T13:46:17.111Z,100092.66
2022-09-11T13:48:48.330Z,100084.06
2022-09-11T13:51:31.180Z,100078.31
2022-09-11T13:54:12.937Z,100091.50
2022-09-11T13:56:45.192Z,100089.31
2022-09-11T13:59:35.660Z,100092.75
2022-09-11T14:02:03.469Z,100089.81
2022-09-11T14:04:30.072Z,100086.22
2022-09-11T14:06:56.709Z,100088.53
2022-09-11T14:09:23.380Z,100085.41
2022-09-11T14:11:49.989Z,100080.72
2022-09-11T14:14:22.808Z,100079.00
2022-09-11T14:16:54.974Z,100081.56
2022-09-11T14:19:23.665Z,100078.19
2022-09-11T14:21:50.574Z,100075.03
2022-09-11T14:24:33.378Z,100062.53
2022-09-11T14:27:01.694Z,100081.06
2022-09-11T14:29:32.475Z,100078.47
2022-09-11T14:32:33.783Z,100076.50
2022-09-11T14:35:08.900Z,100072.59
2022-09-11T14:37:40.311Z,100065.62
2022-09-11T14:40:17.507Z,100055.16
2022-09-11T14:42:44.232Z,100060.87
2022-09-11T14:45:11.950Z,100056.28
2022-09-11T14:47:39.117Z,100050.09
2022-09-11T14:50:11.982Z,100059.31
2022-09-11T14:52:39.076Z,100070.13
2022-09-11T14:55:06.717Z,100083.59
2022-09-11T14:57:36.603Z,100086.34
2022-09-11T15:00:03.744Z,100087.25
2022-09-11T15:02:30.368Z,100088.53
2022-09-11T15:04:57.433Z,100082.62
2022-09-11T15:07:24.462Z,100081.63
2022-09-11T15:09:51.905Z,100080.09
2022-09-11T15:12:19.206Z,100081.94
2022-09-11T15:14:56.386Z,100080.69
2022-09-11T15:17:25.332Z,100076.44
2022-09-11T15:19:52.781Z,100082.88
2022-09-11T15:22:19.490Z,100078.56
2022-09-11T15:24:47.094Z,100080.34
2022-09-11T15:27:13.889Z,100073.12
2022-09-11T15:29:42.810Z,100082.41
2022-09-11T15:32:09.817Z,100085.09
2022-09-11T15:34:38.700Z,100079.31
2022-09-11T15:37:05.464Z,100077.81
2022-09-11T15:39:32.077Z,100077.44
2022-09-11T15:41:59.267Z,100094.63
2022-09-11T15:44:27.606Z,100080.25
2022-09-11T15:46:54.738Z,100084.06
2022-09-11T15:49:21.806Z,100096.75
2022-09-11T15:51:52.219Z,100087.09
2022-09-11T15:54:19.245Z,100078.06
2022-09-11T15:56:46.822Z,100074.56
2022-09-11T15:59:15.226Z,100075.53
2022-09-11T16:01:42.252Z,100070.25
2022-09-11T16:04:10.607Z,100060.69
2022-09-11T16:06:39.116Z,100074.94
2022-09-11T16:09:11.280Z,100071.69
2022-09-11T16:11:39.624Z,100079.84
2022-09-11T16:14:06.270Z,100079.28
2022-09-11T16:16:32.824Z,100079.28
2022-09-11T16:19:01.707Z,100088.28
2022-09-11T16:21:28.725Z,100085.88
2022-09-11T16:24:00.750Z,100084.59
2022-09-11T16:26:29.111Z,100100.38
2022-09-11T16:28:55.733Z,100101.75
2022-09-11T16:31:22.353Z,100103.59
2022-09-11T16:33:49.858Z,100108.66
2022-09-11T16:36:20.854Z,100108.31
2022-09-11T16:38:50.007Z,100107.59
2022-09-11T16:41:18.997Z,100112.22
2022-09-11T16:43:47.333Z,100114.63
2022-09-11T16:46:15.529Z,100112.22
2022-09-11T16:48:44.121Z,100116.09
2022-09-11T16:51:11.949Z,100118.34
2022-09-11T16:53:38.586Z,100104.31
2022-09-11T16:56:09.115Z,100111.00
2022-09-11T16:58:36.536Z,100111.97
2022-09-11T17:01:29.545Z,100106.75
2022-09-11T17:03:56.861Z,100104.94
2022-09-11T17:06:24.769Z,100108.72
2022-09-11T17:08:51.513Z,100112.72
2022-09-11T17:11:19.737Z,100121.59
2022-09-11T17:13:46.670Z,100112.31
2022-09-11T17:16:16.606Z,100112.00
2022-09-11T17:18:47.594Z,100110.81
2022-09-11T17:21:14.257Z,100113.62
2022-09-11T17:23:40.682Z,100121.19
2022-09-11T17:26:11.199Z,100121.03
2022-09-11T17:28:39.632Z,100122.66
2022-09-11T17:31:07.842Z,100119.81
2022-09-11T17:33:35.686Z,100118.84
2022-09-11T17:36:03.061Z,100124.31
2022-09-11T17:38:29.659Z,100125.41
2022-09-11T17:41:00.185Z,100118.50
2022-09-11T17:43:26.826Z,100131.41
2022-09-11T17:45:59.593Z,100132.69
2022-09-11T17:48:27.904Z,100140.62
2022-09-11T17:51:05.397Z,100132.75
2022-09-11T17:53:38.125Z,100126.13
2022-09-11T17:56:07.221Z,100130.00
2022-09-11T17:58:34.466Z,100139.78
2022-09-11T18:01:02.939Z,100139.34
2022-09-11T18:03:31.075Z,100139.78
2022-09-11T18:05:58.099Z,100151.56
2022-09-11T18:08:26.304Z,100147.91
2022-09-11T18:10:54.016Z,100155.44
2022-09-11T18:13:22.203Z,100156.34
2022-09-11T18:15:50.122Z,100160.66
2022-09-11T18:18:16.911Z,100163.56
2022-09-11T18:20:43.589Z,100165.00
2022-09-11T18:23:11.436Z,100160.28
2022-09-11T18:25:39.806Z,100161.63
2022-09-11T18:28:09.094Z,100163.56
2022-09-11T18:30:40.889Z,100171.09
2022-09-11T18:33:10.835Z,100164.69
2022-09-11T18:35:38.077Z,100167.03
2022-09-11T18:38:05.582Z,100163.75
2022-09-11T18:40:32.391Z,100161.47
2022-09-11T18:43:00.032Z,100168.59
2022-09-11T18:45:30.644Z,100169.09
2022-09-11T18:48:00.216Z,100156.94
2022-09-11T18:50:26.992Z,100166.72
2022-09-11T18:52:53.428Z,100164.69
2022-09-11T18:55:22.709Z,100170.62
2022-09-11T18:57:50.517Z,100167.25
2022-09-11T19:00:17.651Z,100169.19
2022-09-11T19:02:45.724Z,100166.37
2022-09-11T19:05:15.469Z,100167.25
2022-09-11T19:07:43.919Z,100166.53
2022-09-11T19:10:11.626Z,100174.75
2022-09-11T19:12:39.524Z,100180.06
2022-09-11T19:15:07.669Z,100174.16
2022-09-11T19:17:38.479Z,100173.53
2022-09-11T19:20:12.246Z,100174.38
2022-09-11T19:22:38.876Z,100173.41
2022-09-11T19:25:05.577Z,100168.97
2022-09-11T19:27:32.230Z,100172.22
2022-09-11T19:29:59.978Z,100174.97
2022-09-11T19:32:28.127Z,100177.88
2022-09-11T19:34:54.972Z,100168.94
2022-09-11T19:37:21.647Z,100184.44
2022-09-11T19:39:52.618Z,100175.81
2022-09-11T19:42:23.691Z,100176.03
2022-09-11T19:44:55.597Z,100172.91
2022-09-11T19:47:25.144Z,100173.38
2022-09-11T19:49:52.139Z,100178.84
2022-09-11T19:52:18.854Z,100187.25
2022-09-11T19:54:45.249Z,100188.44
2022-09-11T19:57:11.858Z,100188.91
2022-09-11T19:59:38.494Z,100185.53
2022-09-11T20:02:05.133Z,100183.09
2022-09-11T20:04:31.675Z,100184.53
2022-09-11T20:06:58.738Z,100182.22
2022-09-11T20:09:31.489Z,100184.66
2022-09-11T20:12:00.800Z,100179.44
2022-09-11T20:14:31.374Z,100163.25
2022-09-11T20:16:57.963Z,100170.13
2022-09-11T20:19:24.642Z,100179.69
2022-09-11T20:21:51.071Z,100175.84
2022-09-11T20:24:17.971Z,100175.94
2022-09-11T20:26:44.558Z,100181.72
2022-09-11T20:29:14.932Z,100184.50
2022-09-11T20:31:47.551Z,100190.16
2022-09-11T20:34:16.331Z,100188.44
2022-09-11T20:36:42.933Z,100183.50
2022-09-11T20:39:11.023Z,100180.84
2022-09-11T20:41:37.729Z,100192.06
2022-09-11T20:44:04.321Z,100194.34
2022-09-11T20:46:31.029Z,100191.81
2022-09-11T20:48:57.514Z,100194.91
2022-09-11T20:51:24.177Z,100187.16
2022-09-11T20:53:50.607Z,100198.47
2022-09-11T20:56:19.539Z,100199.78
2022-09-11T20:58:46.225Z,100206.16
2022-09-11T21:01:13.520Z,100204.41
2022-09-11T21:03:46.977Z,100214.31
2022-09-11T21:06:13.669Z,100219.84
2022-09-11T21:08:42.118Z,100214.53
2022-09-11T21:11:09.015Z,100214.84
2022-09-11T21:13:39.269Z,100214.25
2022-09-11T21:16:10.842Z,100222.31
2022-09-11T21:18:37.709Z,100212.97
2022-09-11T21:21:04.558Z,100217.78
2022-09-11T21:23:31.298Z,100217.06
2022-09-11T21:25:58.257Z,100210.56
2022-09-11T21:28:24.808Z,100199.31
2022-09-11T21:30:51.423Z,100206.72
2022-09-11T21:33:18.068Z,100201.88
2022-09-11T21:35:48.900Z,100209.59
2022-09-11T21:38:16.590Z,100215.75
2022-09-11T21:40:43.194Z,100208.03
2022-09-11T21:43:09.737Z,100212.25
2022-09-11T21:45:36.318Z,100210.03
2022-09-11T21:48:03.144Z,100220.25
2022-09-11T21:50:29.716Z,100215.16
2022-09-11T21:52:56.377Z,100212.94
2022-09-11T21:55:23.118Z,100206.25
2022-09-11T21:57:49.503Z,100210.37
2022-09-11T22:00:16.603Z,100213.13
2022-09-11T22:02:43.171Z,100211.94
2022-09-11T22:05:09.881Z,100206.44
2022-09-11T22:07:36.337Z,100214.16
2022-09-11T22:10:03.493Z,100210.37
2022-09-11T22:12:30.093Z,100215.16
2022-09-11T22:14:56.671Z,100208.25
2022-09-11T22:17:23.266Z,100210.56
2022-09-11T22:19:49.935Z,100209.41
2022-09-11T22:22:16.685Z,100209.53
2022-09-11T22:24:43.096Z,100210.91
2022-09-11T22:27:09.813Z,100207.31
2022-09-11T22:29:37.091Z,100205.22
2022-09-11T22:32:06.720Z,100205.41
2022-09-11T22:34:34.694Z,100219.84
2022-09-11T22:37:01.256Z,100206.81
2022-09-11T22:39:27.894Z,100205.47
2022-09-11T22:41:54.684Z,100203.13
2022-09-11T22:44:21.069Z,100202.72
2022-09-11T22:46:48.893Z,100214.25
2022-09-11T22:49:15.724Z,100207.16
2022-09-11T22:51:42.116Z,100218.47
2022-09-11T22:54:08.742Z,100210.97
2022-09-11T22:56:35.293Z,100214.25
2022-09-11T22:59:01.909Z,100219.84
2022-09-11T23:01:28.490Z,100224.97
2022-09-11T23:03:55.144Z,100225.47
2022-09-11T23:06:43.440Z,100222.84
2022-09-11T23:09:12.733Z,100226.31
2022-09-11T23:11:39.786Z,100227.59
2022-09-11T23:14:10.473Z,100232.66
2022-09-11T23:16:40.784Z,100227.06
2022-09-11T23:19:07.440Z,100228.66
2022-09-11T23:21:35.573Z,100223.44
2022-09-11T23:24:02.456Z,100233.84
2022-09-11T23:26:29.503Z,100228.75
2022-09-11T23:28:56.137Z,100236.06
2022-09-11T23:31:28.831Z,100236.94
2022-09-11T23:33:56.989Z,100244.97
2022-09-11T23:36:23.687Z,100241.59
2022-09-11T23:38:50.606Z,100254.81
2022-09-11T23:41:17.721Z,100251.34
2022-09-11T23:43:44.504Z,100246.56
2022-09-11T23:46:11.623Z,100250.13
2022-09-11T23:48:38.272Z,100241.25
2022-09-11T23:51:05.513Z,100240.28
2022-09-11T23:53:34.366Z,100237.78
2022-09-11T23:56:00.996Z,100244.22
2022-09-11T23:58:27.624Z,100250.47
